sensor_id;sensor_type;location;lat;lon;timestamp;pressure;altitude;pressure_sealevel;temperature;humidity
75923;BME280;64602;47.542;19.090;2023-05-20T00:01:28;100817.72;;;14.85;90.17
75923;BME280;64602;47.542;19.090;2023-05-20T00:06:30;100802.97;;;14.86;90.41
75923;BME280;64602;47.542;19.090;2023-05-20T00:11:33;100793.34;;;14.68;90.62
75923;BME280;64602;47.542;19.090;2023-05-20T00:16:35;100801.03;;;14.71;90.93
75923;BME280;64602;47.542;19.090;2023-05-20T00:21:37;100807.31;;;14.67;91.32
75923;BME280;64602;47.542;19.090;2023-05-20T00:26:39;100791.97;;;14.61;91.30
75923;BME280;64602;47.542;19.090;2023-05-20T00:31:41;100778.06;;;14.57;91.53
75923;BME280;64602;47.542;19.090;2023-05-20T00:36:44;100782.37;;;14.53;91.73
75923;BME280;64602;47.542;19.090;2023-05-20T00:41:46;100775.25;;;14.42;91.93
75923;BME280;64602;47.542;19.090;2023-05-20T00:46:48;100779.59;;;14.32;92.21
75923;BME280;64602;47.542;19.090;2023-05-20T00:51:51;100786.94;;;14.32;92.52
75923;BME280;64602;47.542;19.090;2023-05-20T00:56:53;100779.56;;;14.27;92.80
75923;BME280;64602;47.542;19.090;2023-05-20T01:01:56;100773.81;;;14.24;92.85
75923;BME280;64602;47.542;19.090;2023-05-20T01:06:59;100774.91;;;14.23;92.99
75923;BME280;64602;47.542;19.090;2023-05-20T01:12:47;100767.78;;;14.17;92.86
75923;BME280;64602;47.542;19.090;2023-05-20T01:17:43;100785.25;;;14.21;92.93
75923;BME280;64602;47.542;19.090;2023-05-20T01:22:49;100782.50;;;14.10;93.09
75923;BME280;64602;47.542;19.090;2023-05-20T01:27:55;100784.09;;;14.06;93.05
75923;BME280;64602;47.542;19.090;2023-05-20T01:33:01;100786.84;;;14.06;93.18
75923;BME280;64602;47.542;19.090;2023-05-20T01:38:06;100786.25;;;13.99;93.07
75923;BME280;64602;47.542;19.090;2023-05-20T01:43:08;100805.12;;;14.06;93.02
75923;BME280;64602;47.542;19.090;2023-05-20T01:48:11;100789.00;;;14.04;92.94
75923;BME280;64602;47.542;19.090;2023-05-20T01:53:13;100797.69;;;13.96;93.10
75923;BME280;64602;47.542;19.090;2023-05-20T01:58:16;100792.81;;;13.98;92.97
75923;BME280;64602;47.542;19.090;2023-05-20T02:03:18;100806.75;;;14.07;92.79
75923;BME280;64602;47.542;19.090;2023-05-20T02:08:20;100796.63;;;14.02;92.75
75923;BME280;64602;47.542;19.090;2023-05-20T02:13:22;100796.97;;;14.11;92.48
75923;BME280;64602;47.542;19.090;2023-05-20T02:18:24;100796.94;;;14.06;92.60
75923;BME280;64602;47.542;19.090;2023-05-20T02:23:27;100810.63;;;14.16;92.77
75923;BME280;64602;47.542;19.090;2023-05-20T02:28:29;100798.56;;;14.07;92.60
75923;BME280;64602;47.542;19.090;2023-05-20T02:33:31;100797.19;;;14.04;92.82
75923;BME280;64602;47.542;19.090;2023-05-20T02:38:34;100807.53;;;14.02;92.88
75923;BME280;64602;47.542;19.090;2023-05-20T02:43:36;100812.50;;;14.05;92.97
75923;BME280;64602;47.542;19.090;2023-05-20T02:48:38;100807.53;;;13.97;93.04
75923;BME280;64602;47.542;19.090;2023-05-20T02:53:41;100803.34;;;13.84;93.26
75923;BME280;64602;47.542;19.090;2023-05-20T02:58:43;100816.44;;;13.82;93.16
75923;BME280;64602;47.542;19.090;2023-05-20T03:03:45;100816.41;;;13.77;93.33
75923;BME280;64602;47.542;19.090;2023-05-20T03:08:47;100806.59;;;13.76;93.43
75923;BME280;64602;47.542;19.090;2023-05-20T03:13:49;100818.53;;;13.70;93.61
75923;BME280;64602;47.542;19.090;2023-05-20T03:18:52;100816.03;;;13.63;93.92
75923;BME280;64602;47.542;19.090;2023-05-20T03:23:55;100823.16;;;13.64;94.07
75923;BME280;64602;47.542;19.090;2023-05-20T03:28:58;100823.16;;;13.64;94.23
75923;BME280;64602;47.542;19.090;2023-05-20T03:34:00;100839.50;;;13.64;94.25
75923;BME280;64602;47.542;19.090;2023-05-20T03:39:02;100824.44;;;13.57;94.21
75923;BME280;64602;47.542;19.090;2023-05-20T03:44:05;100842.53;;;13.68;94.12
75923;BME280;64602;47.542;19.090;2023-05-20T03:49:07;100828.31;;;13.66;93.91
75923;BME280;64602;47.542;19.090;2023-05-20T03:54:09;100833.03;;;13.76;93.67
75923;BME280;64602;47.542;19.090;2023-05-20T03:59:11;100827.00;;;13.74;93.58
75923;BME280;64602;47.542;19.090;2023-05-20T04:04:14;100837.44;;;13.82;93.45
75923;BME280;64602;47.542;19.090;2023-05-20T04:09:16;100845.66;;;13.87;93.23
75923;BME280;64602;47.542;19.090;2023-05-20T04:14:18;100851.72;;;13.94;92.99
75923;BME280;64602;47.542;19.090;2023-05-20T04:19:20;100860.19;;;13.98;92.61
75923;BME280;64602;47.542;19.090;2023-05-20T04:24:25;100844.91;;;13.97;92.42
75923;BME280;64602;47.542;19.090;2023-05-20T04:29:28;100860.78;;;14.05;92.35
75923;BME280;64602;47.542;19.090;2023-05-20T04:34:30;100865.94;;;14.01;92.19
75923;BME280;64602;47.542;19.090;2023-05-20T04:39:36;100867.09;;;14.10;91.90
75923;BME280;64602;47.542;19.090;2023-05-20T04:44:38;100872.56;;;14.10;91.77
75923;BME280;64602;47.542;19.090;2023-05-20T04:49:43;100874.78;;;14.19;91.53
75923;BME280;64602;47.542;19.090;2023-05-20T04:54:46;100878.69;;;14.33;91.37
75923;BME280;64602;47.542;19.090;2023-05-20T04:59:49;100863.94;;;14.34;90.93
75923;BME280;64602;47.542;19.090;2023-05-20T05:04:51;100856.88;;;14.43;90.56
75923;BME280;64602;47.542;19.090;2023-05-20T05:09:53;100870.91;;;14.57;90.15
75923;BME280;64602;47.542;19.090;2023-05-20T05:14:55;100882.19;;;14.71;89.49
75923;BME280;64602;47.542;19.090;2023-05-20T05:19:59;100882.78;;;14.83;88.93
75923;BME280;64602;47.542;19.090;2023-05-20T05:25:02;100872.41;;;14.95;88.60
75923;BME280;64602;47.542;19.090;2023-05-20T05:30:05;100866.44;;;15.09;87.84
75923;BME280;64602;47.542;19.090;2023-05-20T05:35:08;100870.53;;;15.22;87.23
75923;BME280;64602;47.542;19.090;2023-05-20T05:40:10;100880.16;;;15.39;86.53
75923;BME280;64602;47.542;19.090;2023-05-20T05:45:13;100864.84;;;15.49;86.28
75923;BME280;64602;47.542;19.090;2023-05-20T05:50:15;100877.41;;;15.65;85.49
75923;BME280;64602;47.542;19.090;2023-05-20T05:55:17;100887.03;;;15.78;84.87
75923;BME280;64602;47.542;19.090;2023-05-20T06:00:19;100879.38;;;15.85;84.13
75923;BME280;64602;47.542;19.090;2023-05-20T06:05:21;100893.00;;;16.06;83.46
75923;BME280;64602;47.542;19.090;2023-05-20T06:10:24;100890.78;;;16.23;83.15
75923;BME280;64602;47.542;19.090;2023-05-20T06:15:26;100869.94;;;16.32;82.25
75923;BME280;64602;47.542;19.090;2023-05-20T06:20:28;100883.59;;;16.48;81.98
75923;BME280;64602;47.542;19.090;2023-05-20T06:25:30;100892.56;;;16.69;81.48
75923;BME280;64602;47.542;19.090;2023-05-20T06:30:33;100881.59;;;16.79;80.84
75923;BME280;64602;47.542;19.090;2023-05-20T06:35:35;100881.50;;;16.94;80.75
75923;BME280;64602;47.542;19.090;2023-05-20T06:40:37;100881.37;;;17.15;79.33
75923;BME280;64602;47.542;19.090;2023-05-20T06:45:40;100884.81;;;17.36;77.72
75923;BME280;64602;47.542;19.090;2023-05-20T06:50:43;100876.16;;;17.58;76.90
75923;BME280;64602;47.542;19.090;2023-05-20T06:55:45;100870.78;;;17.71;74.77
75923;BME280;64602;47.542;19.090;2023-05-20T07:00:49;100873.88;;;17.99;71.57
75923;BME280;64602;47.542;19.090;2023-05-20T07:05:51;100872.59;;;18.15;70.80
75923;BME280;64602;47.542;19.090;2023-05-20T07:10:56;100870.44;;;18.36;69.53
75923;BME280;64602;47.542;19.090;2023-05-20T07:15:58;100876.00;;;18.55;68.53
75923;BME280;64602;47.542;19.090;2023-05-20T07:21:06;100866.22;;;18.68;67.89
75923;BME280;64602;47.542;19.090;2023-05-20T07:26:09;100858.22;;;18.91;67.53
75923;BME280;64602;47.542;19.090;2023-05-20T07:31:11;100853.72;;;19.00;66.31
75923;BME280;64602;47.542;19.090;2023-05-20T07:36:14;100858.84;;;19.26;65.36
75923;BME280;64602;47.542;19.090;2023-05-20T07:41:16;100855.62;;;19.37;64.83
75923;BME280;64602;47.542;19.090;2023-05-20T07:46:18;100855.09;;;19.54;65.05
75923;BME280;64602;47.542;19.090;2023-05-20T07:51:21;100857.91;;;19.68;64.44
75923;BME280;64602;47.542;19.090;2023-05-20T07:56:23;100860.50;;;19.92;63.90
75923;BME280;64602;47.542;19.090;2023-05-20T08:01:25;100856.47;;;20.17;63.73
75923;BME280;64602;47.542;19.090;2023-05-20T08:06:28;100861.06;;;20.36;62.41
75923;BME280;64602;47.542;19.090;2023-05-20T08:11:30;100841.38;;;20.56;62.34
75923;BME280;64602;47.542;19.090;2023-05-20T08:16:33;100840.75;;;20.73;61.72
75923;BME280;64602;47.542;19.090;2023-05-20T08:21:35;100839.06;;;21.00;61.65
75923;BME280;64602;47.542;19.090;2023-05-20T08:26:37;100838.44;;;21.25;60.61
75923;BME280;64602;47.542;19.090;2023-05-20T08:31:39;100844.81;;;21.48;59.26
75923;BME280;64602;47.542;19.090;2023-05-20T08:36:41;100842.69;;;21.76;58.73
75923;BME280;64602;47.542;19.090;2023-05-20T08:41:46;100821.03;;;22.01;58.16
75923;BME280;64602;47.542;19.090;2023-05-20T08:46:49;100825.09;;;22.35;57.88
75923;BME280;64602;47.542;19.090;2023-05-20T08:51:53;100819.28;;;22.54;57.00
75923;BME280;64602;47.542;19.090;2023-05-20T08:56:55;100824.72;;;22.85;56.41
75923;BME280;64602;47.542;19.090;2023-05-20T09:01:58;100807.31;;;23.11;56.40
75923;BME280;64602;47.542;19.090;2023-05-20T09:07:00;100822.75;;;23.55;56.05
75923;BME280;64602;47.542;19.090;2023-05-20T09:12:02;100804.62;;;23.66;54.16
75923;BME280;64602;47.542;19.090;2023-05-20T09:17:04;100810.75;;;23.98;53.56
75923;BME280;64602;47.542;19.090;2023-05-20T09:22:09;100814.66;;;24.36;53.57
75923;BME280;64602;47.542;19.090;2023-05-20T09:27:11;100805.75;;;24.51;51.96
75923;BME280;64602;47.542;19.090;2023-05-20T09:32:15;100793.69;;;24.77;51.44
75923;BME280;64602;47.542;19.090;2023-05-20T09:37:20;100785.47;;;25.01;50.65
75923;BME280;64602;47.542;19.090;2023-05-20T09:42:30;100775.69;;;25.16;49.20
75923;BME280;64602;47.542;19.090;2023-05-20T09:47:36;100771.31;;;25.48;48.65
75923;BME280;64602;47.542;19.090;2023-05-20T09:52:39;100774.38;;;25.80;48.08
75923;BME280;64602;47.542;19.090;2023-05-20T09:57:42;100761.56;;;26.00;46.38
75923;BME280;64602;47.542;19.090;2023-05-20T10:02:49;100752.63;;;26.19;45.77
75923;BME280;64602;47.542;19.090;2023-05-20T10:23:49;100727.50;;;26.96;43.82
75923;BME280;64602;47.542;19.090;2023-05-20T10:28:52;100734.25;;;27.23;42.99
75923;BME280;64602;47.542;19.090;2023-05-20T10:33:54;100725.00;;;27.35;42.39
75923;BME280;64602;47.542;19.090;2023-05-20T10:38:59;100723.41;;;27.66;40.55
75923;BME280;64602;47.542;19.090;2023-05-20T10:44:04;100714.59;;;27.64;39.87
75923;BME280;64602;47.542;19.090;2023-05-20T10:49:17;100707.97;;;27.84;39.88
75923;BME280;64602;47.542;19.090;2023-05-20T10:54:21;100706.66;;;27.98;38.70
75923;BME280;64602;47.542;19.090;2023-05-20T10:59:23;100705.69;;;27.90;38.86
75923;BME280;64602;47.542;19.090;2023-05-20T11:04:27;100698.19;;;28.10;38.70
75923;BME280;64602;47.542;19.090;2023-05-20T11:09:30;100688.91;;;28.06;38.54
75923;BME280;64602;47.542;19.090;2023-05-20T11:14:34;100694.53;;;27.90;38.60
75923;BME280;64602;47.542;19.090;2023-05-20T11:19:36;100685.06;;;27.79;37.68
75923;BME280;64602;47.542;19.090;2023-05-20T11:24:39;100683.81;;;27.76;38.33
75923;BME280;64602;47.542;19.090;2023-05-20T11:29:41;100678.78;;;27.82;38.09
75923;BME280;64602;47.542;19.090;2023-05-20T11:34:44;100681.84;;;27.92;38.23
75923;BME280;64602;47.542;19.090;2023-05-20T11:39:46;100675.31;;;27.85;37.05
75923;BME280;64602;47.542;19.090;2023-05-20T11:44:49;100674.72;;;27.95;37.34
75923;BME280;64602;47.542;19.090;2023-05-20T11:49:51;100672.47;;;28.01;36.61
75923;BME280;64602;47.542;19.090;2023-05-20T11:54:53;100671.47;;;28.09;36.98
75923;BME280;64602;47.542;19.090;2023-05-20T11:59:55;100662.22;;;28.24;37.17
75923;BME280;64602;47.542;19.090;2023-05-20T12:04:57;100657.91;;;28.27;37.15
75923;BME280;64602;47.542;19.090;2023-05-20T12:10:04;100663.56;;;28.30;37.02
75923;BME280;64602;47.542;19.090;2023-05-20T12:15:06;100676.91;;;28.21;35.99
75923;BME280;64602;47.542;19.090;2023-05-20T12:20:09;100644.69;;;28.24;35.46
75923;BME280;64602;47.542;19.090;2023-05-20T12:25:12;100656.28;;;28.26;34.62
75923;BME280;64602;47.542;19.090;2023-05-20T12:30:21;100643.50;;;28.44;34.63
75923;BME280;64602;47.542;19.090;2023-05-20T12:35:34;100634.63;;;28.58;35.14
75923;BME280;64602;47.542;19.090;2023-05-20T12:40:37;100631.62;;;28.67;33.96
75923;BME280;64602;47.542;19.090;2023-05-20T12:45:39;100630.34;;;28.84;33.99
75923;BME280;64602;47.542;19.090;2023-05-20T12:50:42;100633.31;;;29.14;33.45
75923;BME280;64602;47.542;19.090;2023-05-20T12:55:44;100632.44;;;29.33;34.00
75923;BME280;64602;47.542;19.090;2023-05-20T13:00:47;100626.25;;;29.47;34.29
75923;BME280;64602;47.542;19.090;2023-05-20T13:05:49;100628.78;;;29.78;34.52
75923;BME280;64602;47.542;19.090;2023-05-20T13:10:51;100620.00;;;29.80;33.58
75923;BME280;64602;47.542;19.090;2023-05-20T13:15:53;100613.59;;;29.79;33.16
75923;BME280;64602;47.542;19.090;2023-05-20T13:20:55;100600.13;;;30.19;33.20
75923;BME280;64602;47.542;19.090;2023-05-20T13:25:57;100602.09;;;30.45;32.91
75923;BME280;64602;47.542;19.090;2023-05-20T13:31:04;100595.94;;;30.66;33.24
75923;BME280;64602;47.542;19.090;2023-05-20T13:36:08;100588.84;;;30.79;31.89
75923;BME280;64602;47.542;19.090;2023-05-20T13:41:11;100581.53;;;31.08;31.62
75923;BME280;64602;47.542;19.090;2023-05-20T13:46:15;100588.91;;;31.31;32.35
75923;BME280;64602;47.542;19.090;2023-05-20T13:51:17;100591.03;;;31.41;32.81
75923;BME280;64602;47.542;19.090;2023-05-20T13:56:19;100580.13;;;31.33;32.49
75923;BME280;64602;47.542;19.090;2023-05-20T14:01:22;100566.44;;;30.12;33.59
75923;BME280;64602;47.542;19.090;2023-05-20T14:06:25;100563.66;;;30.42;33.92
75923;BME280;64602;47.542;19.090;2023-05-20T14:11:28;100566.69;;;30.63;33.93
75923;BME280;64602;47.542;19.090;2023-05-20T14:16:30;100572.75;;;31.14;32.76
75923;BME280;64602;47.542;19.090;2023-05-20T14:21:33;100561.12;;;31.12;32.00
75923;BME280;64602;47.542;19.090;2023-05-20T14:26:35;100565.72;;;30.86;31.34
75923;BME280;64602;47.542;19.090;2023-05-20T14:31:37;100550.94;;;30.89;31.74
75923;BME280;64602;47.542;19.090;2023-05-20T14:36:40;100550.16;;;30.92;32.08
75923;BME280;64602;47.542;19.090;2023-05-20T14:41:42;100551.63;;;30.82;31.56
75923;BME280;64602;47.542;19.090;2023-05-20T14:46:45;100543.69;;;30.84;32.89
75923;BME280;64602;47.542;19.090;2023-05-20T14:51:47;100540.25;;;30.64;32.27
75923;BME280;64602;47.542;19.090;2023-05-20T14:56:53;100540.34;;;30.75;31.62
75923;BME280;64602;47.542;19.090;2023-05-20T15:01:55;100532.41;;;30.40;32.13
75923;BME280;64602;47.542;19.090;2023-05-20T15:06:57;100532.34;;;30.02;32.71
75923;BME280;64602;47.542;19.090;2023-05-20T15:11:59;100515.66;;;29.49;33.73
75923;BME280;64602;47.542;19.090;2023-05-20T15:17:02;100533.19;;;28.96;33.80
75923;BME280;64602;47.542;19.090;2023-05-20T15:22:05;100519.56;;;28.95;33.88
75923;BME280;64602;47.542;19.090;2023-05-20T15:27:07;100510.50;;;29.02;34.90
75923;BME280;64602;47.542;19.090;2023-05-20T15:32:09;100511.94;;;28.92;35.17
75923;BME280;64602;47.542;19.090;2023-05-20T15:37:12;100506.94;;;28.55;36.00
75923;BME280;64602;47.542;19.090;2023-05-20T15:42:14;100499.69;;;28.31;36.90
75923;BME280;64602;47.542;19.090;2023-05-20T15:47:19;100490.31;;;28.00;37.59
75923;BME280;64602;47.542;19.090;2023-05-20T15:52:22;100491.16;;;27.65;38.12
75923;BME280;64602;47.542;19.090;2023-05-20T15:57:24;100491.09;;;27.26;38.96
75923;BME280;64602;47.542;19.090;2023-05-20T16:02:27;100484.31;;;26.92;39.71
75923;BME280;64602;47.542;19.090;2023-05-20T16:07:30;100491.22;;;26.67;39.84
75923;BME280;64602;47.542;19.090;2023-05-20T16:12:32;100481.37;;;26.41;40.42
75923;BME280;64602;47.542;19.090;2023-05-20T16:17:35;100477.66;;;26.21;41.04
75923;BME280;64602;47.542;19.090;2023-05-20T16:22:37;100485.84;;;26.01;40.96
75923;BME280;64602;47.542;19.090;2023-05-20T16:27:39;100481.28;;;25.81;40.97
75923;BME280;64602;47.542;19.090;2023-05-20T16:32:41;100484.09;;;25.69;40.96
75923;BME280;64602;47.542;19.090;2023-05-20T16:37:44;100474.41;;;25.50;40.99
75923;BME280;64602;47.542;19.090;2023-05-20T16:42:46;100473.97;;;25.36;41.69
75923;BME280;64602;47.542;19.090;2023-05-20T16:47:49;100484.22;;;25.20;42.02
75923;BME280;64602;47.542;19.090;2023-05-20T16:52:51;100486.12;;;25.07;42.62
75923;BME280;64602;47.542;19.090;2023-05-20T16:57:53;100475.59;;;24.88;42.76
75923;BME280;64602;47.542;19.090;2023-05-20T17:02:55;100486.47;;;24.81;43.27
75923;BME280;64602;47.542;19.090;2023-05-20T17:07:58;100479.88;;;24.61;43.80
75923;BME280;64602;47.542;19.090;2023-05-20T17:13:01;100486.81;;;24.55;44.51
75923;BME280;64602;47.542;19.090;2023-05-20T17:18:04;100489.41;;;24.39;44.45
75923;BME280;64602;47.542;19.090;2023-05-20T17:23:07;100478.81;;;24.20;44.07
75923;BME280;64602;47.542;19.090;2023-05-20T17:28:09;100500.63;;;24.09;44.35
75923;BME280;64602;47.542;19.090;2023-05-20T17:33:11;100497.66;;;23.93;43.80
75923;BME280;64602;47.542;19.090;2023-05-20T17:38:13;100487.87;;;23.75;43.54
75923;BME280;64602;47.542;19.090;2023-05-20T17:43:16;100492.31;;;23.67;44.23
75923;BME280;64602;47.542;19.090;2023-05-20T17:48:18;100494.94;;;23.42;44.69
75923;BME280;64602;47.542;19.090;2023-05-20T17:53:20;100490.25;;;23.34;44.85
75923;BME280;64602;47.542;19.090;2023-05-20T17:58:23;100494.31;;;23.16;44.46
75923;BME280;64602;47.542;19.090;2023-05-20T18:03:25;100491.59;;;22.98;44.72
75923;BME280;64602;47.542;19.090;2023-05-20T18:08:28;100484.81;;;22.78;45.21
75923;BME280;64602;47.542;19.090;2023-05-20T18:13:31;100487.97;;;22.68;46.51
75923;BME280;64602;47.542;19.090;2023-05-20T18:18:33;100483.31;;;22.43;46.63
75923;BME280;64602;47.542;19.090;2023-05-20T18:23:35;100484.16;;;22.26;47.16
75923;BME280;64602;47.542;19.090;2023-05-20T18:28:37;100488.06;;;22.16;47.70
75923;BME280;64602;47.542;19.090;2023-05-20T18:33:40;100480.16;;;21.97;48.34
75923;BME280;64602;47.542;19.090;2023-05-20T18:38:42;100490.06;;;21.81;48.87
75923;BME280;64602;47.542;19.090;2023-05-20T18:43:45;100503.06;;;21.71;49.32
75923;BME280;64602;47.542;19.090;2023-05-20T18:48:47;100515.37;;;21.57;49.84
75923;BME280;64602;47.542;19.090;2023-05-20T18:53:50;100503.00;;;21.37;50.22
75923;BME280;64602;47.542;19.090;2023-05-20T18:58:52;100499.69;;;21.17;51.51
75923;BME280;64602;47.542;19.090;2023-05-20T19:03:54;100499.00;;;21.03;52.02
75923;BME280;64602;47.542;19.090;2023-05-20T19:08:56;100493.09;;;20.87;52.62
75923;BME280;64602;47.542;19.090;2023-05-20T19:13:58;100512.41;;;20.87;53.20
75923;BME280;64602;47.542;19.090;2023-05-20T19:19:01;100516.25;;;20.77;53.37
75923;BME280;64602;47.542;19.090;2023-05-20T19:24:03;100504.06;;;20.69;53.45
75923;BME280;64602;47.542;19.090;2023-05-20T19:29:05;100509.66;;;20.56;54.17
75923;BME280;64602;47.542;19.090;2023-05-20T19:34:07;100534.84;;;20.40;55.44
75923;BME280;64602;47.542;19.090;2023-05-20T19:39:10;100528.19;;;20.19;54.66
75923;BME280;64602;47.542;19.090;2023-05-20T19:44:13;100531.91;;;20.14;55.92
75923;BME280;64602;47.542;19.090;2023-05-20T19:49:15;100530.19;;;20.04;56.10
75923;BME280;64602;47.542;19.090;2023-05-20T19:54:17;100527.19;;;19.92;56.14
75923;BME280;64602;47.542;19.090;2023-05-20T19:59:19;100528.25;;;19.82;56.10
75923;BME280;64602;47.542;19.090;2023-05-20T20:04:22;100529.38;;;19.81;56.60
75923;BME280;64602;47.542;19.090;2023-05-20T20:09:24;100534.28;;;19.71;57.43
75923;BME280;64602;47.542;19.090;2023-05-20T20:14:26;100528.34;;;19.63;57.95
75923;BME280;64602;47.542;19.090;2023-05-20T20:19:28;100520.12;;;19.50;58.09
75923;BME280;64602;47.542;19.090;2023-05-20T20:24:31;100536.16;;;19.48;58.54
75923;BME280;64602;47.542;19.090;2023-05-20T20:29:33;100533.81;;;19.41;59.14
75923;BME280;64602;47.542;19.090;2023-05-20T20:34:35;100523.62;;;19.28;59.34
75923;BME280;64602;47.542;19.090;2023-05-20T20:39:37;100523.41;;;19.24;59.80
75923;BME280;64602;47.542;19.090;2023-05-20T20:44:39;100525.16;;;19.06;60.21
75923;BME280;64602;47.542;19.090;2023-05-20T20:49:49;100516.41;;;19.04;60.67
75923;BME280;64602;47.542;19.090;2023-05-20T20:54:51;100525.06;;;18.97;60.77
75923;BME280;64602;47.542;19.090;2023-05-20T20:59:53;100516.09;;;18.92;61.21
75923;BME280;64602;47.542;19.090;2023-05-20T21:04:58;100521.19;;;18.85;61.55
75923;BME280;64602;47.542;19.090;2023-05-20T21:10:03;100523.22;;;18.79;61.85
75923;BME280;64602;47.542;19.090;2023-05-20T21:15:06;100510.03;;;18.62;62.03
75923;BME280;64602;47.542;19.090;2023-05-20T21:20:09;100523.47;;;18.64;62.68
75923;BME280;64602;47.542;19.090;2023-05-20T21:25:12;100512.56;;;18.45;62.98
75923;BME280;64602;47.542;19.090;2023-05-20T21:30:14;100514.25;;;18.41;63.00
75923;BME280;64602;47.542;19.090;2023-05-20T21:35:18;100522.88;;;18.34;63.25
75923;BME280;64602;47.542;19.090;2023-05-20T21:40:20;100526.75;;;18.33;63.75
75923;BME280;64602;47.542;19.090;2023-05-20T21:45:22;100522.25;;;18.23;63.94
75923;BME280;64602;47.542;19.090;2023-05-20T21:50:24;100504.59;;;18.10;64.17
75923;BME280;64602;47.542;19.090;2023-05-20T21:55:26;100514.69;;;18.15;64.44
75923;BME280;64602;47.542;19.090;2023-05-20T22:00:28;100513.72;;;18.06;64.82
75923;BME280;64602;47.542;19.090;2023-05-20T22:05:31;100508.84;;;18.03;64.79
75923;BME280;64602;47.542;19.090;2023-05-20T22:10:35;100511.13;;;17.96;65.29
75923;BME280;64602;47.542;19.090;2023-05-20T22:15:38;100506.94;;;17.84;65.69
75923;BME280;64602;47.542;19.090;2023-05-20T22:20:40;100514.66;;;17.82;66.11
75923;BME280;64602;47.542;19.090;2023-05-20T22:25:43;100492.88;;;17.67;66.41
75923;BME280;64602;47.542;19.090;2023-05-20T22:30:45;100506.97;;;17.60;66.63
75923;BME280;64602;47.542;19.090;2023-05-20T22:35:48;100514.25;;;17.51;66.99
75923;BME280;64602;47.542;19.090;2023-05-20T22:40:50;100516.75;;;17.47;67.32
75923;BME280;64602;47.542;19.090;2023-05-20T22:45:52;100511.72;;;17.36;67.74
75923;BME280;64602;47.542;19.090;2023-05-20T22:50:54;100521.09;;;17.29;68.08
75923;BME280;64602;47.542;19.090;2023-05-20T22:55:57;100520.34;;;17.24;68.36
75923;BME280;64602;47.542;19.090;2023-05-20T23:01:00;100529.31;;;17.29;68.64
75923;BME280;64602;47.542;19.090;2023-05-20T23:06:03;100538.22;;;17.21;69.04
75923;BME280;64602;47.542;19.090;2023-05-20T23:11:05;100544.91;;;17.10;69.27
75923;BME280;64602;47.542;19.090;2023-05-20T23:16:07;100527.47;;;17.01;69.40
75923;BME280;64602;47.542;19.090;2023-05-20T23:21:12;100532.94;;;17.01;70.05
75923;BME280;64602;47.542;19.090;2023-05-20T23:26:15;100522.09;;;16.91;69.85
75923;BME280;64602;47.542;19.090;2023-05-20T23:31:17;100534.66;;;16.97;70.19
75923;BME280;64602;47.542;19.090;2023-05-20T23:36:19;100519.66;;;16.89;70.47
75923;BME280;64602;47.542;19.090;2023-05-20T23:41:21;100522.03;;;16.96;70.01
75923;BME280;64602;47.542;19.090;2023-05-20T23:46:24;100515.00;;;16.90;69.77
75923;BME280;64602;47.542;19.090;2023-05-20T23:51:26;100537.28;;;17.07;69.05
75923;BME280;64602;47.542;19.090;2023-05-20T23:56:28;100525.50;;;17.06;69.80
